createdAt,value
2019-02-12T00:00:19.874Z,0
2019-02-12T00:01:27.924Z,0
2019-02-12T00:02:35.986Z,0
2019-02-12T00:03:44.019Z,0
2019-02-12T00:04:52.070Z,0
2019-02-12T00:06:00.148Z,0
2019-02-12T00:07:08.233Z,0
2019-02-12T00:08:16.250Z,0
2019-02-12T00:09:24.304Z,0
2019-02-12T00:10:32.371Z,0
2019-02-12T00:11:40.426Z,0
2019-02-12T00:12:48.465Z,0
2019-02-12T00:13:56.531Z,0
2019-02-12T00:15:04.587Z,0
2019-02-12T00:16:12.640Z,0
2019-02-12T00:17:20.706Z,0
2019-02-12T00:18:28.781Z,0
2019-02-12T00:19:36.807Z,0
2019-02-12T00:20:44.868Z,0
2019-02-12T00:21:52.899Z,0
2019-02-12T00:23:00.957Z,0
2019-02-12T00:24:09.025Z,0
2019-02-12T00:25:17.083Z,0
2019-02-12T00:26:25.135Z,0
2019-02-12T00:27:33.186Z,0
2019-02-12T00:28:41.262Z,0
2019-02-12T00:29:49.285Z,0
2019-02-12T00:30:57.348Z,0
2019-02-12T00:32:05.402Z,0
2019-02-12T00:33:13.463Z,0
2019-02-12T00:34:21.495Z,0
2019-02-12T00:35:29.567Z,0
2019-02-12T00:36:37.641Z,0
2019-02-12T00:37:45.686Z,0
2019-02-12T00:38:53.730Z,0
2019-02-12T00:40:01.770Z,0
2019-02-12T00:41:09.884Z,0
2019-02-12T00:42:18.421Z,0
2019-02-12T00:43:25.957Z,0
2019-02-12T00:44:34.008Z,0
2019-02-12T00:45:42.039Z,0
2019-02-12T00:46:50.131Z,0
2019-02-12T00:47:58.350Z,0
2019-02-12T00:49:06.210Z,0
2019-02-12T00:50:14.473Z,0
2019-02-12T00:51:22.328Z,0
2019-02-12T00:52:30.391Z,0
2019-02-12T00:53:38.639Z,0
2019-02-12T00:54:46.502Z,0
2019-02-12T00:55:54.562Z,0
2019-02-12T00:57:02.789Z,0
2019-02-12T00:58:10.671Z,0
2019-02-12T00:59:18.934Z,0
2019-02-12T01:00:26.763Z,0
2019-02-12T01:01:35.126Z,0
2019-02-12T01:02:42.882Z,0
2019-02-12T01:03:50.931Z,0
2019-02-12T01:04:59.166Z,0
2019-02-12T01:06:07.049Z,0
2019-02-12T01:07:15.193Z,0
2019-02-12T01:08:23.527Z,0
2019-02-12T01:09:32.007Z,0
2019-02-12T01:10:39.695Z,0
2019-02-12T01:11:47.698Z,0
2019-02-12T01:12:55.371Z,0
2019-02-12T01:14:03.435Z,0
2019-02-12T01:15:11.469Z,0
2019-02-12T01:16:19.544Z,0
2019-02-12T01:17:27.596Z,0
2019-02-12T01:18:35.640Z,0
2019-02-12T01:19:43.706Z,0
2019-02-12T01:20:51.741Z,0
2019-02-12T01:21:59.820Z,0
2019-02-12T01:23:07.884Z,0
2019-02-12T01:24:15.923Z,0
2019-02-12T01:25:23.984Z,0
2019-02-12T01:26:32.032Z,0
2019-02-12T01:27:40.088Z,0
2019-02-12T01:28:48.141Z,0
2019-02-12T01:29:56.200Z,0
2019-02-12T01:31:04.251Z,0
2019-02-12T01:32:12.283Z,0
2019-02-12T01:33:20.369Z,0
2019-02-12T01:34:28.430Z,0
2019-02-12T01:35:36.470Z,0
2019-02-12T01:36:44.537Z,0
2019-02-12T01:37:52.648Z,0
2019-02-12T01:39:00.650Z,0
2019-02-12T01:40:08.698Z,0
2019-02-12T01:41:16.748Z,0
2019-02-12T01:42:24.812Z,0
2019-02-12T01:43:32.873Z,0
2019-02-12T01:44:40.932Z,0
2019-02-12T01:45:48.982Z,0
2019-02-12T01:46:57.024Z,0
2019-02-12T01:48:05.107Z,0
2019-02-12T01:49:13.141Z,0
2019-02-12T01:50:21.185Z,0
2019-02-12T01:51:34.878Z,0
2019-02-12T01:52:37.306Z,0
2019-02-12T01:53:45.362Z,0
2019-02-12T01:54:53.418Z,0
2019-02-12T01:56:01.469Z,0
2019-02-12T01:57:09.532Z,0
2019-02-12T01:58:17.583Z,0
2019-02-12T01:59:25.648Z,0
2019-02-12T02:00:33.701Z,0
2019-02-12T02:01:41.715Z,0
2019-02-12T02:02:49.822Z,0
2019-02-12T02:03:57.859Z,0
2019-02-12T02:05:05.918Z,0
2019-02-12T02:06:13.978Z,0
2019-02-12T02:07:22.017Z,0
2019-02-12T02:08:30.128Z,0
2019-02-12T02:09:38.141Z,0
2019-02-12T02:10:46.195Z,0
2019-02-12T02:11:54.253Z,0
2019-02-12T02:13:02.292Z,0
2019-02-12T02:14:10.373Z,0
2019-02-12T02:15:18.411Z,0
2019-02-12T02:16:26.493Z,0
2019-02-12T02:17:34.537Z,0
2019-02-12T02:18:42.591Z,0
2019-02-12T02:19:50.651Z,0
2019-02-12T02:20:58.705Z,0
2019-02-12T02:22:06.742Z,0
2019-02-12T02:23:14.800Z,0
2019-02-12T02:24:22.873Z,0
2019-02-12T02:25:30.917Z,0
2019-02-12T02:26:38.979Z,0
2019-02-12T02:27:47.036Z,0
2019-02-12T02:28:55.102Z,0
2019-02-12T02:30:03.153Z,0
2019-02-12T02:31:11.265Z,0
2019-02-12T02:32:19.264Z,0
2019-02-12T02:33:27.326Z,0
2019-02-12T02:34:35.371Z,0
2019-02-12T02:35:43.427Z,0
2019-02-12T02:36:51.466Z,0
2019-02-12T02:37:59.548Z,0
2019-02-12T02:39:07.608Z,0
2019-02-12T02:40:15.658Z,0
2019-02-12T02:41:23.697Z,0
2019-02-12T02:42:31.753Z,0
2019-02-12T02:43:39.829Z,0
2019-02-12T02:44:47.865Z,0
2019-02-12T02:45:55.923Z,0
2019-02-12T02:47:03.993Z,0
2019-02-12T02:48:12.024Z,0
2019-02-12T02:49:20.093Z,0
2019-02-12T02:50:28.145Z,0
2019-02-12T02:51:36.219Z,0
2019-02-12T02:52:44.272Z,0
2019-02-12T02:53:52.365Z,0
2019-02-12T02:55:00.381Z,0
2019-02-12T02:56:08.433Z,0
2019-02-12T02:57:16.491Z,0
2019-02-12T02:58:24.539Z,0
2019-02-12T02:59:32.592Z,0
2019-02-12T03:00:40.646Z,0
2019-02-12T03:01:48.708Z,0
2019-02-12T03:02:56.759Z,0
2019-02-12T03:04:04.873Z,0
2019-02-12T03:05:12.876Z,0
2019-02-12T03:06:21.031Z,0
2019-02-12T03:07:29.008Z,0
2019-02-12T03:08:37.039Z,0
2019-02-12T03:09:45.096Z,0
2019-02-12T03:10:53.175Z,0
2019-02-12T03:12:01.213Z,0
2019-02-12T03:13:09.255Z,0
2019-02-12T03:14:17.330Z,0
2019-02-12T03:15:25.381Z,0
2019-02-12T03:16:33.443Z,0
2019-02-12T03:17:41.489Z,0
2019-02-12T03:18:49.551Z,0
2019-02-12T03:19:57.595Z,0
2019-02-12T03:21:05.663Z,0
2019-02-12T03:22:13.723Z,0
2019-02-12T03:23:21.754Z,0
2019-02-12T03:24:29.843Z,0
2019-02-12T03:25:37.882Z,0
2019-02-12T03:26:45.976Z,0
2019-02-12T03:27:53.994Z,0
2019-02-12T03:29:02.025Z,0
2019-02-12T03:30:10.125Z,0
2019-02-12T03:31:18.152Z,0
2019-02-12T03:32:26.224Z,0
2019-02-12T03:33:34.278Z,0
2019-02-12T03:34:42.289Z,0
2019-02-12T03:35:50.383Z,0
2019-02-12T03:36:58.471Z,0
2019-02-12T03:38:06.491Z,0
2019-02-12T03:39:14.541Z,0
2019-02-12T03:40:22.598Z,0
2019-02-12T03:41:30.672Z,0
2019-02-12T03:42:38.725Z,0
2019-02-12T03:43:46.770Z,0
2019-02-12T03:44:54.829Z,0
2019-02-12T03:46:02.872Z,0
2019-02-12T03:47:10.940Z,0
2019-02-12T03:48:21.203Z,0
2019-02-12T03:49:27.051Z,0
2019-02-12T03:50:35.095Z,0
2019-02-12T03:51:43.153Z,0
2019-02-12T03:52:51.239Z,0
2019-02-12T03:53:59.296Z,0
2019-02-12T03:55:07.325Z,0
2019-02-12T03:56:15.381Z,0
2019-02-12T03:57:23.434Z,0
2019-02-12T03:58:31.469Z,0
2019-02-12T03:59:39.541Z,0
2019-02-12T04:00:47.606Z,0
2019-02-12T04:01:55.685Z,0
2019-02-12T04:03:03.728Z,0
2019-02-12T04:04:11.760Z,0
2019-02-12T04:05:19.824Z,0
2019-02-12T04:06:27.887Z,0
2019-02-12T04:07:35.950Z,0
2019-02-12T04:08:43.999Z,0
2019-02-12T04:09:52.025Z,0
2019-02-12T04:11:00.130Z,0
2019-02-12T04:12:08.163Z,0
2019-02-12T04:13:16.209Z,0
2019-02-12T04:14:24.278Z,0
2019-02-12T04:15:32.545Z,0
2019-02-12T04:16:40.375Z,0
2019-02-12T04:17:48.443Z,0
2019-02-12T04:18:56.485Z,0
2019-02-12T04:20:04.534Z,0
2019-02-12T04:21:12.607Z,0
2019-02-12T04:22:22.407Z,0
2019-02-12T04:23:28.736Z,0
2019-02-12T04:24:36.775Z,0
2019-02-12T04:25:44.826Z,0
2019-02-12T04:26:52.903Z,0
2019-02-12T04:28:00.951Z,0
2019-02-12T04:29:08.987Z,0
2019-02-12T04:30:17.052Z,0
2019-02-12T04:31:25.112Z,0
2019-02-12T04:32:33.171Z,0
2019-02-12T04:33:41.218Z,0
2019-02-12T04:34:49.323Z,0
2019-02-12T04:35:57.342Z,0
2019-02-12T04:37:05.379Z,0
2019-02-12T04:38:13.457Z,0
2019-02-12T04:39:21.492Z,0
2019-02-12T04:40:29.569Z,0
2019-02-12T04:41:37.613Z,0
2019-02-12T04:42:45.665Z,0
2019-02-12T04:43:53.741Z,0
2019-02-12T04:45:01.817Z,0
2019-02-12T04:46:09.819Z,0
2019-02-12T04:47:17.891Z,0
2019-02-12T04:48:25.942Z,0
2019-02-12T04:49:34.016Z,0
2019-02-12T04:50:42.043Z,0
2019-02-12T04:51:50.118Z,0
2019-02-12T04:52:58.182Z,0
2019-02-12T04:54:06.221Z,0
2019-02-12T04:55:14.286Z,0
2019-02-12T04:56:22.368Z,0
2019-02-12T04:57:30.399Z,0
2019-02-12T04:58:38.470Z,0
2019-02-12T04:59:46.500Z,0
2019-02-12T05:00:54.565Z,0
2019-02-12T05:02:02.632Z,0
2019-02-12T05:03:10.668Z,0
2019-02-12T05:04:18.738Z,0
2019-02-12T05:05:26.805Z,0
2019-02-12T05:06:34.862Z,0
2019-02-12T05:07:42.898Z,0
2019-02-12T05:08:50.957Z,0
2019-02-12T05:09:59.005Z,0
2019-02-12T05:11:07.071Z,0
2019-02-12T05:12:15.114Z,0
2019-02-12T05:13:23.269Z,0
2019-02-12T05:14:31.233Z,0
2019-02-12T05:15:39.291Z,0
2019-02-12T05:16:47.342Z,0
2019-02-12T05:17:55.409Z,0
2019-02-12T05:19:03.466Z,0
2019-02-12T05:20:11.498Z,0
2019-02-12T05:21:19.565Z,0
2019-02-12T05:22:27.612Z,0
2019-02-12T05:23:35.687Z,0
2019-02-12T05:24:43.727Z,0
2019-02-12T05:25:51.763Z,0
2019-02-12T05:26:59.848Z,0
2019-02-12T05:28:07.899Z,0
2019-02-12T05:29:18.182Z,0
2019-02-12T05:30:24.002Z,0
2019-02-12T05:31:32.055Z,0
2019-02-12T05:32:40.128Z,0
2019-02-12T05:33:48.193Z,0
2019-02-12T05:34:56.224Z,0
2019-02-12T05:36:04.367Z,0
2019-02-12T05:37:12.327Z,0
2019-02-12T05:38:20.441Z,0
2019-02-12T05:39:28.458Z,0
2019-02-12T05:40:36.517Z,0
2019-02-12T05:41:44.567Z,0
2019-02-12T05:42:52.623Z,0
2019-02-12T05:44:00.674Z,0
2019-02-12T05:45:08.744Z,0
2019-02-12T05:46:16.818Z,0
2019-02-12T05:47:24.871Z,0
2019-02-12T05:48:32.921Z,0
2019-02-12T05:49:41.007Z,0
2019-02-12T05:50:49.020Z,0
2019-02-12T05:51:57.080Z,0
2019-02-12T05:53:06.669Z,0
2019-02-12T05:54:13.193Z,0
2019-02-12T05:55:21.238Z,0
2019-02-12T05:56:29.306Z,0
2019-02-12T05:57:37.375Z,0
2019-02-12T05:58:46.425Z,0
2019-02-12T05:59:53.511Z,0
2019-02-12T06:01:01.615Z,0
2019-02-12T06:02:09.584Z,0
2019-02-12T06:03:17.653Z,0
2019-02-12T06:04:25.704Z,0
2019-02-12T06:05:33.753Z,0
2019-02-12T06:06:41.787Z,0
2019-02-12T06:07:49.874Z,0
2019-02-12T06:08:57.908Z,4
2019-02-12T06:10:06.018Z,4
2019-02-12T06:11:14.035Z,0
2019-02-12T06:12:22.093Z,4
2019-02-12T06:13:30.133Z,4
2019-02-12T06:14:38.204Z,4
2019-02-12T06:15:46.257Z,4
2019-02-12T06:16:54.296Z,8
2019-02-12T06:18:02.345Z,12
2019-02-12T06:19:11.622Z,12
2019-02-12T06:20:18.487Z,20
2019-02-12T06:21:26.539Z,20
2019-02-12T06:22:34.626Z,28
2019-02-12T06:23:42.653Z,28
2019-02-12T06:24:50.698Z,40
2019-02-12T06:25:58.763Z,44
2019-02-12T06:27:06.826Z,52
2019-02-12T06:28:14.880Z,60
2019-02-12T06:29:22.940Z,72
2019-02-12T06:30:31.010Z,84
2019-02-12T06:31:39.043Z,92
2019-02-12T06:32:47.100Z,108
2019-02-12T06:33:55.194Z,128
2019-02-12T06:35:03.198Z,144
2019-02-12T06:36:11.258Z,164
2019-02-12T06:37:19.322Z,188
2019-02-12T06:38:27.383Z,220
2019-02-12T06:39:35.439Z,248
2019-02-12T06:40:43.489Z,284
2019-02-12T06:41:51.517Z,320
2019-02-12T06:42:59.606Z,356
2019-02-12T06:44:07.693Z,388
2019-02-12T06:45:15.705Z,428
2019-02-12T06:46:23.762Z,472
2019-02-12T06:47:31.802Z,524
2019-02-12T06:48:39.875Z,572
2019-02-12T06:49:47.934Z,620
2019-02-12T06:50:55.993Z,664
2019-02-12T06:52:04.056Z,708
2019-02-12T06:53:12.654Z,764
2019-02-12T06:54:20.157Z,828
2019-02-12T06:55:28.203Z,896
2019-02-12T06:56:36.256Z,964
2019-02-12T06:57:44.301Z,1036
2019-02-12T06:58:52.371Z,1116
2019-02-12T07:00:00.433Z,1188
2019-02-12T07:01:08.500Z,1236
2019-02-12T07:02:16.553Z,1272
2019-02-12T07:03:24.590Z,1304
2019-02-12T07:04:32.655Z,1336
2019-02-12T07:05:40.694Z,1372
2019-02-12T07:06:48.809Z,1420
2019-02-12T07:07:56.826Z,1472
2019-02-12T07:09:04.882Z,1532
2019-02-12T07:10:13.043Z,1600
2019-02-12T07:11:20.980Z,1676
2019-02-12T07:12:29.049Z,1752
2019-02-12T07:13:37.088Z,1812
2019-02-12T07:14:45.152Z,1844
2019-02-12T07:15:53.225Z,1868
2019-02-12T07:17:01.252Z,1884
2019-02-12T07:18:09.444Z,1912
2019-02-12T07:19:17.384Z,1952
2019-02-12T07:20:25.446Z,1996
2019-02-12T07:21:33.500Z,2024
2019-02-12T07:22:41.527Z,2044
2019-02-12T07:23:49.602Z,2072
2019-02-12T07:24:57.659Z,2104
2019-02-12T07:26:06.063Z,2140
2019-02-12T07:27:13.827Z,2168
2019-02-12T07:28:22.013Z,2208
2019-02-12T07:29:29.919Z,2248
2019-02-12T07:30:37.926Z,2272
2019-02-12T07:31:45.975Z,2348
2019-02-12T07:32:54.048Z,2456
2019-02-12T07:34:02.166Z,2592
2019-02-12T07:35:10.151Z,2692
2019-02-12T07:36:18.206Z,2748
2019-02-12T07:37:26.244Z,2800
2019-02-12T07:38:34.330Z,2884
2019-02-12T07:39:42.377Z,2912
2019-02-12T07:40:50.434Z,2924
2019-02-12T07:41:58.491Z,2956
2019-02-12T07:43:06.635Z,2996
2019-02-12T07:44:14.597Z,3136
2019-02-12T07:45:22.665Z,3188
2019-02-12T07:46:30.710Z,3208
2019-02-12T07:47:38.766Z,3224
2019-02-12T07:48:46.808Z,3200
2019-02-12T07:49:54.862Z,3112
2019-02-12T07:51:02.913Z,3036
2019-02-12T07:52:11.033Z,2820
2019-02-12T07:53:19.107Z,2756
2019-02-12T07:54:27.108Z,2660
2019-02-12T07:55:35.155Z,2660
2019-02-12T07:56:43.203Z,2812
2019-02-12T07:57:51.262Z,2684
2019-02-12T07:58:59.299Z,2824
2019-02-12T08:00:07.390Z,2820
2019-02-12T08:01:15.434Z,3208
2019-02-12T08:02:23.484Z,4004
2019-02-12T08:03:31.587Z,4528
2019-02-12T08:04:39.592Z,3860
2019-02-12T08:05:47.665Z,3896
2019-02-12T08:06:55.702Z,4264
2019-02-12T08:08:03.760Z,4720
2019-02-12T08:09:11.809Z,4872
2019-02-12T08:10:19.895Z,5296
2019-02-12T08:11:27.938Z,5220
2019-02-12T08:12:35.985Z,5004
2019-02-12T08:13:44.054Z,5240
2019-02-12T08:14:52.073Z,5228
2019-02-12T08:16:00.160Z,5544
2019-02-12T08:17:08.205Z,6192
2019-02-12T08:18:16.263Z,7004
2019-02-12T08:19:24.328Z,7396
2019-02-12T08:20:32.428Z,8064
2019-02-12T08:21:40.448Z,9184
2019-02-12T08:22:48.483Z,9464
2019-02-12T08:23:56.556Z,8736
2019-02-12T08:25:04.594Z,8852
2019-02-12T08:26:13.163Z,8584
2019-02-12T08:27:20.750Z,7548
2019-02-12T08:28:28.788Z,7240
2019-02-12T08:29:36.837Z,7600
2019-02-12T08:30:44.896Z,7416
2019-02-12T08:31:52.947Z,6824
2019-02-12T08:33:01.010Z,6800
2019-02-12T08:34:09.065Z,8612
2019-02-12T08:35:17.139Z,8392
2019-02-12T08:36:25.192Z,7576
2019-02-12T08:37:33.355Z,7456
2019-02-12T08:38:41.319Z,7660
2019-02-12T08:39:49.393Z,8572
2019-02-12T08:40:57.408Z,8564
2019-02-12T08:42:05.494Z,7900
2019-02-12T08:43:13.525Z,7832
2019-02-12T08:44:21.568Z,7776
2019-02-12T08:45:29.655Z,7488
2019-02-12T08:46:37.705Z,6872
2019-02-12T08:47:45.756Z,6320
2019-02-12T08:48:53.803Z,6444
2019-02-12T08:50:01.901Z,6188
2019-02-12T08:51:09.949Z,6652
2019-02-12T08:52:17.987Z,7044
2019-02-12T08:53:26.049Z,6688
2019-02-12T08:54:34.156Z,6900
2019-02-12T08:55:42.159Z,7120
2019-02-12T08:56:50.655Z,6852
2019-02-12T08:57:58.285Z,6808
2019-02-12T08:59:06.351Z,6936
2019-02-12T09:00:14.401Z,6920
2019-02-12T09:01:22.463Z,6944
2019-02-12T09:02:30.569Z,6872
2019-02-12T09:03:38.944Z,6776
2019-02-12T09:04:46.670Z,6516
2019-02-12T09:05:54.690Z,6448
2019-02-12T09:07:02.852Z,6484
2019-02-12T09:08:10.821Z,6604
2019-02-12T09:09:18.873Z,6644
2019-02-12T09:10:26.914Z,7004
2019-02-12T09:11:35.032Z,6896
2019-02-12T09:12:43.053Z,6904
2019-02-12T09:13:51.097Z,7244
2019-02-12T09:14:59.168Z,7696
2019-02-12T09:16:07.213Z,7964
2019-02-12T09:17:15.289Z,8500
2019-02-12T09:18:23.356Z,8632
2019-02-12T09:19:31.394Z,9024
2019-02-12T09:20:39.473Z,8276
2019-02-12T09:21:47.512Z,8976
2019-02-12T09:22:55.576Z,9644
2019-02-12T09:24:03.736Z,9556
2019-02-12T09:25:11.699Z,9232
2019-02-12T09:26:19.826Z,8880
2019-02-12T09:27:27.805Z,8340
2019-02-12T09:28:35.872Z,7884
2019-02-12T09:29:43.942Z,7476
2019-02-12T09:30:51.992Z,7276
2019-02-12T09:32:00.051Z,7164
2019-02-12T09:33:08.121Z,7008
2019-02-12T09:34:16.192Z,7544
2019-02-12T09:35:24.432Z,8736
2019-02-12T09:36:32.283Z,9116
2019-02-12T09:37:40.380Z,9472
2019-02-12T09:38:48.394Z,9968
2019-02-12T09:39:56.458Z,10404
2019-02-12T09:41:04.523Z,10140
2019-02-12T09:42:12.583Z,9624
2019-02-12T09:43:20.650Z,8264
2019-02-12T09:44:28.704Z,7952
2019-02-12T09:45:36.784Z,7976
2019-02-12T09:46:44.830Z,8336
2019-02-12T09:47:52.890Z,8716
2019-02-12T09:49:00.950Z,9088
2019-02-12T09:50:09.045Z,9244
2019-02-12T09:51:17.067Z,9804
2019-02-12T09:52:25.126Z,10276
2019-02-12T09:53:33.180Z,9964
2019-02-12T09:54:41.244Z,9616
2019-02-12T09:55:49.296Z,9352
2019-02-12T09:56:57.366Z,9524
2019-02-12T09:58:05.408Z,9228
2019-02-12T09:59:13.497Z,8720
2019-02-12T10:00:21.536Z,8740
2019-02-12T10:01:29.592Z,8984
2019-02-12T10:02:37.669Z,9168
2019-02-12T10:03:45.720Z,9204
2019-02-12T10:04:53.791Z,9044
2019-02-12T10:06:01.823Z,9112
2019-02-12T10:07:09.901Z,9516
2019-02-12T10:08:17.972Z,10368
2019-02-12T10:09:26.012Z,11284
2019-02-12T10:10:34.095Z,11664
2019-02-12T10:11:42.107Z,11644
2019-02-12T10:12:50.925Z,11032
2019-02-12T10:13:58.277Z,10808
2019-02-12T10:15:06.318Z,10760
2019-02-12T10:16:14.397Z,10756
2019-02-12T10:17:22.467Z,10320
2019-02-12T10:18:30.510Z,10160
2019-02-12T10:19:38.574Z,10244
2019-02-12T10:20:46.647Z,9996
2019-02-12T10:21:54.689Z,9732
2019-02-12T10:23:02.746Z,9748
2019-02-12T10:24:19.223Z,9708
2019-02-12T10:25:18.863Z,9512
2019-02-12T10:26:27.011Z,9204
2019-02-12T10:27:35.004Z,9052
2019-02-12T10:28:48.739Z,9120
2019-02-12T10:29:51.117Z,9272
2019-02-12T10:30:59.188Z,9408
2019-02-12T10:32:08.851Z,9524
2019-02-12T10:33:16.007Z,9612
2019-02-12T10:34:23.393Z,9712
2019-02-12T10:35:31.502Z,9768
2019-02-12T10:36:39.485Z,9748
2019-02-12T10:37:47.586Z,9616
2019-02-12T10:38:55.590Z,9468
2019-02-12T10:40:03.685Z,9452
2019-02-12T10:41:11.704Z,9676
2019-02-12T10:42:19.802Z,9752
2019-02-12T10:43:28.059Z,9584
2019-02-12T10:44:35.918Z,9460
2019-02-12T10:45:43.989Z,9588
2019-02-12T10:46:52.012Z,9544
2019-02-12T10:48:00.093Z,9676
2019-02-12T10:49:08.212Z,9540
2019-02-12T10:50:16.213Z,9804
2019-02-12T10:51:24.298Z,10216
2019-02-12T10:52:32.349Z,10536
2019-02-12T10:53:40.397Z,10252
2019-02-12T10:54:48.492Z,10156
2019-02-12T10:55:56.523Z,10204
2019-02-12T10:57:04.584Z,9864
2019-02-12T10:58:12.668Z,9048
2019-02-12T10:59:20.709Z,8352
2019-02-12T11:00:28.779Z,7996
2019-02-12T11:01:36.870Z,8044
2019-02-12T11:02:44.941Z,8428
2019-02-12T11:03:53.058Z,8876
2019-02-12T11:05:01.045Z,9056
2019-02-12T11:06:09.099Z,8980
2019-02-12T11:07:17.140Z,8612
2019-02-12T11:08:25.232Z,8816
2019-02-12T11:09:33.265Z,9252
2019-02-12T11:10:41.327Z,9884
2019-02-12T11:11:49.385Z,10180
2019-02-12T11:12:57.443Z,10188
2019-02-12T11:14:05.529Z,9972
2019-02-12T11:15:13.594Z,9528
2019-02-12T11:16:21.677Z,9208
2019-02-12T11:17:29.704Z,8608
2019-02-12T11:18:37.777Z,8516
2019-02-12T11:19:45.844Z,8592
2019-02-12T11:20:53.903Z,8452
2019-02-12T11:22:01.931Z,8128
2019-02-12T11:23:11.002Z,7792
2019-02-12T11:24:18.075Z,7388
2019-02-12T11:25:26.131Z,8040
2019-02-12T11:26:34.187Z,8964
2019-02-12T11:27:42.236Z,10052
2019-02-12T11:28:50.317Z,10620
2019-02-12T11:29:58.390Z,10716
2019-02-12T11:31:06.442Z,9972
2019-02-12T11:32:14.508Z,9488
2019-02-12T11:33:22.560Z,9004
2019-02-12T11:34:30.605Z,8616
2019-02-12T11:35:38.684Z,8704
2019-02-12T11:36:46.759Z,9028
2019-02-12T11:37:54.809Z,9544
2019-02-12T11:39:02.875Z,9744
2019-02-12T11:40:10.960Z,10552
2019-02-12T11:41:18.998Z,10976
2019-02-12T11:42:27.099Z,11692
2019-02-12T11:43:35.101Z,11396
2019-02-12T11:44:43.195Z,10920
2019-02-12T11:45:51.225Z,10452
2019-02-12T11:46:59.294Z,10372
2019-02-12T11:48:07.371Z,9888
2019-02-12T11:49:15.422Z,9240
2019-02-12T11:50:23.485Z,8780
2019-02-12T11:51:31.546Z,8552
2019-02-12T11:52:39.612Z,8132
2019-02-12T11:53:47.708Z,7540
2019-02-12T11:54:55.755Z,6804
2019-02-12T11:56:03.797Z,6136
2019-02-12T11:57:11.847Z,6132
2019-02-12T11:58:19.934Z,6172
2019-02-12T11:59:27.983Z,6704
2019-02-12T12:00:36.051Z,6420
2019-02-12T12:01:44.104Z,5864
2019-02-12T12:02:52.147Z,5532
2019-02-12T12:04:00.239Z,5700
2019-02-12T12:05:08.331Z,6284
2019-02-12T12:06:16.353Z,7120
2019-02-12T12:07:24.411Z,7652
2019-02-12T12:08:32.495Z,7996
2019-02-12T12:09:40.557Z,8264
2019-02-12T12:10:48.587Z,8516
2019-02-12T12:11:56.651Z,8700
2019-02-12T12:13:04.705Z,8704
2019-02-12T12:14:12.783Z,8432
2019-02-12T12:15:20.850Z,8508
2019-02-12T12:16:29.027Z,8208
2019-02-12T12:17:36.971Z,7964
2019-02-12T12:18:45.025Z,7820
2019-02-12T12:19:53.139Z,7344
2019-02-12T12:21:01.153Z,7296
2019-02-12T12:22:09.193Z,7324
2019-02-12T12:23:17.267Z,7512
2019-02-12T12:24:25.336Z,7292
2019-02-12T12:25:33.385Z,6640
2019-02-12T12:26:41.923Z,6204
2019-02-12T12:27:49.510Z,6176
2019-02-12T12:28:57.577Z,6196
2019-02-12T12:30:05.642Z,6520
2019-02-12T12:31:13.694Z,6888
2019-02-12T12:32:21.738Z,7284
2019-02-12T12:33:29.818Z,7540
2019-02-12T12:34:37.936Z,7796
2019-02-12T12:35:45.938Z,7960
2019-02-12T12:36:53.992Z,8084
2019-02-12T12:38:02.048Z,8068
2019-02-12T12:39:10.125Z,7856
2019-02-12T12:40:18.187Z,7624
2019-02-12T12:41:26.253Z,7312
2019-02-12T12:42:34.298Z,6984
2019-02-12T12:43:42.359Z,6772
2019-02-12T12:44:52.156Z,6744
2019-02-12T12:45:58.508Z,7020
2019-02-12T12:47:06.545Z,7376
2019-02-12T12:48:14.611Z,7784
2019-02-12T12:49:22.661Z,7996
2019-02-12T12:50:30.744Z,7880
2019-02-12T12:51:38.797Z,7972
2019-02-12T12:52:46.864Z,7736
2019-02-12T12:53:54.907Z,8256
2019-02-12T12:55:02.993Z,8400
2019-02-12T12:56:11.046Z,8648
2019-02-12T12:57:19.121Z,9052
2019-02-12T12:58:27.205Z,9020
2019-02-12T12:59:35.197Z,8692
2019-02-12T13:00:43.266Z,8336
2019-02-12T13:01:51.338Z,7684
2019-02-12T13:02:59.395Z,6888
2019-02-12T13:04:07.452Z,6352
2019-02-12T13:05:15.512Z,5904
2019-02-12T13:06:23.574Z,5468
2019-02-12T13:07:31.642Z,5112
2019-02-12T13:08:39.702Z,4820
2019-02-12T13:09:47.771Z,4744
2019-02-12T13:10:55.810Z,4776
2019-02-12T13:12:03.896Z,4716
2019-02-12T13:13:11.980Z,4948
2019-02-12T13:14:20.002Z,5024
2019-02-12T13:15:28.074Z,5308
2019-02-12T13:16:36.304Z,5644
2019-02-12T13:17:44.185Z,6276
2019-02-12T13:18:52.232Z,6772
2019-02-12T13:20:00.321Z,7124
2019-02-12T13:21:08.371Z,7080
2019-02-12T13:22:16.434Z,7572
2019-02-12T13:23:24.494Z,8500
2019-02-12T13:24:32.624Z,9052
2019-02-12T13:25:40.630Z,9376
2019-02-12T13:26:48.709Z,9468
2019-02-12T13:27:56.741Z,9076
2019-02-12T13:29:04.789Z,8492
2019-02-12T13:30:12.855Z,8248
2019-02-12T13:31:20.894Z,8176
2019-02-12T13:32:28.971Z,7996
2019-02-12T13:33:37.039Z,7800
2019-02-12T13:34:45.095Z,7556
2019-02-12T13:35:53.155Z,7336
2019-02-12T13:37:01.246Z,7092
2019-02-12T13:38:09.290Z,6828
2019-02-12T13:39:17.331Z,6580
2019-02-12T13:40:25.390Z,6248
2019-02-12T13:41:33.452Z,5964
2019-02-12T13:42:41.519Z,5840
2019-02-12T13:43:49.592Z,5728
2019-02-12T13:44:57.639Z,5620
2019-02-12T13:46:05.693Z,5616
2019-02-12T13:47:13.798Z,5756
2019-02-12T13:48:21.866Z,5932
2019-02-12T13:49:30.028Z,6088
2019-02-12T13:50:37.951Z,6120
2019-02-12T13:51:45.987Z,5996
2019-02-12T13:52:54.063Z,5740
2019-02-12T13:54:02.108Z,5564
2019-02-12T13:55:16.863Z,5276
2019-02-12T13:56:18.262Z,5068
2019-02-12T13:57:26.296Z,5044
2019-02-12T13:58:34.389Z,5100
2019-02-12T13:59:42.406Z,5348
2019-02-12T14:00:50.493Z,5764
2019-02-12T14:01:58.556Z,6060
2019-02-12T14:03:06.596Z,6296
2019-02-12T14:04:14.693Z,6280
2019-02-12T14:05:22.764Z,6212
2019-02-12T14:06:30.793Z,6208
2019-02-12T14:07:38.863Z,6272
2019-02-12T14:08:46.903Z,6392
2019-02-12T14:09:54.975Z,6424
2019-02-12T14:11:03.040Z,6384
2019-02-12T14:12:11.920Z,6352
2019-02-12T14:13:19.165Z,6276
2019-02-12T14:14:27.213Z,6176
2019-02-12T14:15:35.282Z,6048
2019-02-12T14:16:43.326Z,5896
2019-02-12T14:17:51.374Z,5852
2019-02-12T14:18:59.457Z,5724
2019-02-12T14:20:07.499Z,5672
2019-02-12T14:21:15.572Z,5640
2019-02-12T14:22:23.681Z,5584
2019-02-12T14:23:31.712Z,5440
2019-02-12T14:24:39.742Z,5236
2019-02-12T14:25:47.805Z,4984
2019-02-12T14:26:55.881Z,4752
2019-02-12T14:28:03.941Z,4500
2019-02-12T14:29:11.988Z,4260
2019-02-12T14:30:20.057Z,4044
2019-02-12T14:31:28.095Z,3796
2019-02-12T14:32:36.169Z,3540
2019-02-12T14:33:44.229Z,3336
2019-02-12T14:34:52.288Z,3192
2019-02-12T14:36:00.360Z,3128
2019-02-12T14:37:08.413Z,3128
2019-02-12T14:38:16.471Z,3156
2019-02-12T14:39:24.542Z,3156
2019-02-12T14:40:32.595Z,3120
2019-02-12T14:41:40.668Z,3056
2019-02-12T14:42:48.813Z,2988
2019-02-12T14:43:56.780Z,2956
2019-02-12T14:45:04.878Z,2960
2019-02-12T14:46:12.884Z,2960
2019-02-12T14:47:20.950Z,2956
2019-02-12T14:48:29.022Z,2936
2019-02-12T14:49:37.071Z,2912
2019-02-12T14:50:45.107Z,2896
2019-02-12T14:51:53.210Z,2876
2019-02-12T14:53:01.235Z,2764
2019-02-12T14:54:09.303Z,2600
2019-02-12T14:55:17.377Z,2384
2019-02-12T14:56:25.410Z,2180
2019-02-12T14:57:33.529Z,2036
2019-02-12T14:58:41.530Z,1952
2019-02-12T14:59:49.599Z,1908
2019-02-12T15:00:57.667Z,1904
2019-02-12T15:02:05.751Z,1896
2019-02-12T15:03:13.773Z,1928
2019-02-12T15:04:21.814Z,1976
2019-02-12T15:05:29.889Z,1900
2019-02-12T15:06:37.956Z,1896
2019-02-12T15:07:46.110Z,1868
2019-02-12T15:08:54.079Z,1892
2019-02-12T15:10:02.115Z,1936
2019-02-12T15:11:10.195Z,1948
2019-02-12T15:12:18.274Z,1956
2019-02-12T15:13:26.304Z,1988
2019-02-12T15:14:34.371Z,2056
2019-02-12T15:15:42.408Z,2136
2019-02-12T15:16:50.477Z,2204
2019-02-12T15:17:58.532Z,2184
2019-02-12T15:19:06.599Z,2120
2019-02-12T15:20:14.665Z,2012
2019-02-12T15:21:22.749Z,1924
2019-02-12T15:22:30.770Z,1860
2019-02-12T15:23:38.827Z,1764
2019-02-12T15:24:46.884Z,1760
2019-02-12T15:25:54.961Z,1664
2019-02-12T15:27:02.997Z,1584
2019-02-12T15:28:11.206Z,1532
2019-02-12T15:29:19.111Z,1528
2019-02-12T15:30:27.184Z,1540
2019-02-12T15:31:35.233Z,1516
2019-02-12T15:32:43.296Z,1468
2019-02-12T15:33:51.366Z,1428
2019-02-12T15:34:59.400Z,1396
2019-02-12T15:36:07.479Z,1380
2019-02-12T15:37:15.519Z,1364
2019-02-12T15:38:23.601Z,1344
2019-02-12T15:39:31.619Z,1332
2019-02-12T15:40:39.691Z,1324
2019-02-12T15:41:47.759Z,1316
2019-02-12T15:42:55.807Z,1300
2019-02-12T15:44:03.884Z,1292